KPBI/PBI METAR and TAF weather

Enter ICAO airport designator
Station Type Date Time Source
KPBI METAR 2022/06/28 14:53 UTC NOAA

KPBI 281453Z 11011KT 10SM SCT025 SCT035 BKN250 30/22 A3010 RMK AO2 SLP193 CB DSNT SW 60000 T03000222 51016


Station Type Date Time Source
KPBI Decoded METAR 2022/06/28 14:53 UTC NOAA

PALM BEACH INTERNATIONAL, FL, United States (KPBI) 26-41N 80-06W 6M
Jun 28, 2022 - 10:53 AM EDT / 2022.06.28 1453 UTC
Wind: from the ESE (110 degrees) at 13 MPH (11 KT):0
Visibility: 10 mile(s):0
Sky conditions: mostly cloudy
Weather: Cumulonimbus clouds observed
Temperature: 86.0 F (30.0 C)
Heat index: 92.1 F (33.4 C):1
Dew Point: 72.0 F (22.2 C)
Relative Humidity: 63%
Pressure (altimeter): 30.1 in. Hg (1019 hPa)
Pressure tendency: 0.05 inches (1.6 hPa) higher than three hours ago
ob: KPBI 281453Z 11011KT 10SM SCT025 SCT035 BKN250 30/22 A3010 RMK AO2 SLP193 CB DSNT SW 60000 T03000222 51016
cycle: 15

Station Type Date Time Source
KPBI TAF 2022/06/28 15:15 UTC NOAA

TAF
AMD KPBI 281511Z 2815/2912 12009KT P6SM SCT025 SCT250
FM281700 12011KT P6SM VCTS SCT030CB SCT250
FM282000 11009KT P6SM FEW025 FEW250
FM290300 VRB05KT P6SM FEW025

Example: see airport list